createdAt,value
2018-10-16T00:01:08.950Z,57.80
2018-10-16T00:06:13.800Z,57.80
2018-10-16T00:11:17.482Z,58.80
2018-10-16T00:16:21.819Z,58.30
2018-10-16T00:21:25.795Z,58.40
2018-10-16T00:26:30.295Z,58.00
2018-10-16T00:31:33.935Z,58.00
2018-10-16T00:36:38.613Z,57.70
2018-10-16T00:41:42.700Z,58.20
2018-10-16T00:46:46.324Z,58.40
2018-10-16T00:51:49.930Z,58.30
2018-10-16T00:56:53.981Z,58.00
2018-10-16T01:01:57.587Z,58.10
2018-10-16T01:07:01.164Z,59.00
2018-10-16T01:12:05.319Z,59.30
2018-10-16T01:17:09.181Z,58.60
2018-10-16T01:22:12.763Z,59.20
2018-10-16T01:27:16.744Z,59.00
2018-10-16T01:32:21.301Z,59.10
2018-10-16T01:37:26.417Z,59.20
2018-10-16T01:42:30.420Z,58.70
2018-10-16T01:47:34.028Z,58.70
2018-10-16T01:52:38.366Z,58.30
2018-10-16T01:57:41.964Z,58.90
2018-10-16T02:02:46.457Z,59.30
2018-10-16T02:07:49.937Z,58.70
2018-10-16T02:12:53.512Z,59.30
2018-10-16T02:17:57.148Z,59.50
2018-10-16T02:23:01.439Z,59.30
2018-10-16T02:28:05.530Z,59.20
2018-10-16T02:33:09.129Z,58.60
2018-10-16T02:38:13.313Z,58.70
2018-10-16T02:43:16.948Z,58.80
2018-10-16T02:48:20.521Z,58.90
2018-10-16T02:53:26.428Z,59.50
2018-10-16T02:58:29.996Z,59.40
2018-10-16T03:03:35.807Z,59.10
2018-10-16T03:08:39.400Z,59.50
2018-10-16T03:13:42.980Z,59.40
2018-10-16T03:18:46.892Z,59.50
2018-10-16T03:23:50.471Z,60.20
2018-10-16T03:28:54.687Z,59.60
2018-10-16T03:33:58.302Z,58.90
2018-10-16T03:39:04.601Z,59.30
2018-10-16T03:44:10.682Z,59.60
2018-10-16T03:49:14.282Z,59.60
2018-10-16T03:54:18.098Z,59.50
2018-10-16T03:59:21.686Z,59.60
2018-10-16T04:04:25.328Z,59.40
2018-10-16T04:09:28.896Z,59.00
2018-10-16T04:14:32.545Z,59.50
2018-10-16T04:19:36.145Z,59.40
2018-10-16T04:24:40.488Z,59.40
2018-10-16T04:29:44.599Z,59.70
2018-10-16T04:34:48.679Z,59.60
2018-10-16T04:39:52.335Z,59.80
2018-10-16T04:44:56.190Z,59.60
2018-10-16T04:50:00.404Z,59.50
2018-10-16T04:55:04.464Z,60.00
2018-10-16T05:00:08.972Z,60.50
2018-10-16T05:05:18.549Z,60.90
2018-10-16T05:10:22.517Z,60.60
2018-10-16T05:15:34.869Z,60.00
2018-10-16T05:20:38.456Z,60.40
2018-10-16T05:25:42.026Z,61.40
2018-10-16T05:30:45.679Z,60.90
2018-10-16T05:35:49.274Z,60.20
2018-10-16T05:40:53.233Z,59.30
2018-10-16T05:45:56.840Z,59.50
2018-10-16T05:51:00.433Z,60.30
2018-10-16T05:56:06.576Z,60.30
2018-10-16T06:01:10.199Z,61.70
2018-10-16T06:06:13.970Z,62.00
2018-10-16T06:11:17.559Z,60.20
2018-10-16T06:16:21.115Z,60.40
2018-10-16T06:21:25.000Z,60.40
2018-10-16T06:26:28.679Z,61.70
2018-10-16T06:31:32.264Z,61.30
2018-10-16T06:36:35.934Z,61.20
2018-10-16T06:41:39.594Z,61.20
2018-10-16T06:46:43.440Z,61.10
2018-10-16T06:51:46.935Z,61.30
2018-10-16T06:56:50.538Z,61.50
2018-10-16T07:01:54.132Z,61.60
2018-10-16T07:06:58.026Z,61.00
2018-10-16T07:12:01.492Z,60.50
2018-10-16T07:17:06.177Z,60.20
2018-10-16T07:22:12.512Z,60.30
2018-10-16T07:27:17.121Z,61.00
2018-10-16T07:32:21.485Z,61.00
2018-10-16T07:37:26.166Z,60.90
2018-10-16T07:42:29.772Z,60.70
2018-10-16T07:47:33.481Z,59.20
2018-10-16T07:52:37.420Z,59.40
2018-10-16T07:57:41.894Z,58.50
2018-10-16T08:02:46.232Z,58.80
2018-10-16T08:07:49.787Z,59.10
2018-10-16T08:12:54.061Z,57.90
2018-10-16T08:17:57.709Z,58.10
2018-10-16T08:23:01.316Z,58.40
2018-10-16T08:28:05.017Z,58.80
2018-10-16T08:33:08.639Z,58.30
2018-10-16T08:40:20.525Z,58.30
2018-10-16T08:45:35.281Z,57.60
2018-10-16T08:50:50.669Z,58.10
2018-10-16T08:55:54.541Z,56.50
2018-10-16T09:00:58.112Z,56.00
2018-10-16T09:06:01.701Z,53.50
2018-10-16T09:11:05.334Z,51.80
2018-10-16T09:16:09.360Z,51.30
2018-10-16T09:21:13.043Z,46.80
2018-10-16T09:26:19.654Z,41.80
2018-10-16T09:31:24.248Z,36.70
2018-10-16T09:36:28.627Z,32.80
2018-10-16T09:41:32.228Z,31.20
2018-10-16T09:46:35.924Z,30.90
2018-10-16T09:51:41.410Z,31.80
2018-10-16T09:56:45.047Z,32.00
2018-10-16T10:01:52.841Z,30.10
2018-10-16T10:06:56.687Z,29.50
2018-10-16T10:12:00.280Z,29.60
2018-10-16T10:17:03.924Z,29.40
2018-10-16T10:22:07.559Z,29.70
2018-10-16T10:27:12.106Z,30.00
2018-10-16T10:32:15.672Z,30.40
2018-10-16T10:37:19.245Z,32.00
2018-10-16T10:42:23.681Z,32.10
2018-10-16T10:47:27.535Z,31.80
2018-10-16T10:52:31.198Z,33.00
2018-10-16T10:57:35.280Z,34.30
2018-10-16T11:02:39.803Z,35.10
2018-10-16T11:07:49.090Z,35.50
2018-10-16T11:12:52.712Z,35.80
2018-10-16T11:17:56.406Z,35.90
2018-10-16T11:23:00.356Z,35.40
2018-10-16T11:28:04.230Z,35.30
2018-10-16T11:33:07.864Z,34.00
2018-10-16T11:43:15.652Z,33.70
2018-10-16T11:48:19.780Z,33.70
2018-10-16T11:53:23.363Z,34.20
2018-10-16T11:58:26.912Z,34.40
2018-10-16T12:03:30.503Z,33.90
2018-10-16T12:08:34.348Z,33.90
2018-10-16T12:13:37.945Z,34.80
2018-10-16T12:19:16.719Z,35.00
2018-10-16T12:24:20.275Z,34.30
2018-10-16T12:29:23.861Z,33.90
2018-10-16T12:34:27.988Z,34.90
2018-10-16T12:39:31.603Z,34.10
2018-10-16T12:44:35.161Z,33.70
2018-10-16T12:49:38.984Z,32.50
2018-10-16T12:54:44.329Z,32.60
2018-10-16T12:59:47.896Z,33.20
2018-10-16T13:15:06.900Z,29.00
2018-10-16T13:25:15.773Z,29.50
2018-10-16T13:35:23.571Z,30.70
2018-10-16T13:40:28.134Z,30.00
2018-10-16T13:50:40.900Z,29.60
2018-10-16T13:55:45.318Z,29.90
2018-10-16T14:00:49.173Z,29.00
2018-10-16T14:05:53.091Z,29.40
2018-10-16T14:10:56.992Z,28.80
2018-10-16T14:16:01.472Z,28.80
2018-10-16T14:21:05.560Z,29.20
2018-10-16T14:26:11.307Z,28.80
2018-10-16T14:31:15.272Z,28.50
2018-10-16T14:36:18.914Z,26.80
2018-10-16T14:41:22.547Z,26.90
2018-10-16T14:51:33.289Z,26.10
2018-10-16T14:56:36.887Z,26.00
2018-10-16T15:01:40.993Z,25.60
2018-10-16T15:06:44.698Z,25.80
2018-10-16T15:11:49.165Z,27.00
2018-10-16T15:16:52.796Z,25.90
2018-10-16T15:21:56.539Z,25.60
2018-10-16T15:27:04.160Z,25.90
2018-10-16T15:32:07.838Z,25.60
2018-10-16T15:37:11.436Z,25.80
2018-10-16T15:42:15.070Z,25.40
2018-10-16T15:47:18.938Z,26.20
2018-10-16T15:52:22.496Z,26.60
2018-10-16T15:57:26.599Z,27.50
2018-10-16T16:02:30.997Z,29.20
2018-10-16T16:07:34.966Z,29.50
2018-10-16T16:12:38.772Z,34.00
2018-10-16T16:17:43.251Z,36.10
2018-10-16T16:22:48.029Z,36.90
2018-10-16T16:27:53.330Z,37.40
2018-10-16T16:32:57.296Z,39.20
2018-10-16T16:38:01.287Z,40.10
2018-10-16T16:43:05.022Z,41.30
2018-10-16T16:48:10.717Z,41.90
2018-10-16T16:53:14.398Z,43.50
2018-10-16T16:58:18.642Z,44.10
2018-10-16T17:03:22.638Z,45.00
2018-10-16T17:08:26.258Z,45.50
2018-10-16T17:13:30.016Z,46.10
2018-10-16T17:18:33.701Z,46.40
2018-10-16T17:23:38.779Z,46.70
2018-10-16T17:28:42.451Z,47.10
2018-10-16T17:33:46.369Z,47.50
2018-10-16T17:38:49.946Z,47.80
2018-10-16T17:43:53.783Z,48.40
2018-10-16T17:48:57.435Z,48.80
2018-10-16T17:54:01.256Z,49.40
2018-10-16T17:59:04.882Z,50.20
2018-10-16T18:04:08.499Z,50.50
2018-10-16T18:09:12.214Z,50.60
2018-10-16T18:14:15.920Z,50.90
2018-10-16T18:19:20.216Z,51.00
2018-10-16T18:24:24.069Z,50.90
2018-10-16T18:29:28.100Z,51.00
2018-10-16T18:34:33.538Z,51.40
2018-10-16T18:39:37.175Z,51.60
2018-10-16T18:44:41.205Z,52.20
2018-10-16T18:49:44.788Z,52.20
2018-10-16T18:54:48.484Z,52.50
2018-10-16T18:59:52.086Z,52.70
2018-10-16T19:04:55.652Z,52.80
2018-10-16T19:09:59.900Z,52.40
2018-10-16T19:15:04.306Z,53.00
2018-10-16T19:20:09.418Z,53.50
2018-10-16T19:25:14.476Z,54.00
2018-10-16T19:30:18.553Z,54.50
2018-10-16T19:35:23.000Z,54.20
2018-10-16T19:40:26.780Z,54.60
2018-10-16T19:45:30.417Z,54.80
2018-10-16T19:50:34.051Z,55.00
2018-10-16T19:55:37.816Z,54.40
2018-10-16T20:00:41.428Z,54.90
2018-10-16T20:05:46.137Z,54.80
2018-10-16T20:10:49.842Z,54.40
2018-10-16T20:15:53.654Z,54.50
2018-10-16T20:20:57.424Z,54.90
2018-10-16T20:26:01.288Z,55.60
2018-10-16T20:31:05.289Z,55.50
2018-10-16T20:36:08.999Z,55.60
2018-10-16T20:41:14.172Z,56.30
2018-10-16T20:46:17.791Z,56.30
2018-10-16T20:51:21.363Z,56.70
2018-10-16T20:56:24.975Z,56.40
2018-10-16T21:01:31.891Z,56.90
2018-10-16T21:06:36.403Z,58.60
2018-10-16T21:11:39.907Z,57.70
2018-10-16T21:16:44.726Z,58.30
2018-10-16T21:21:51.554Z,57.50
2018-10-16T21:27:09.057Z,57.70
2018-10-16T21:32:12.698Z,57.60
2018-10-16T21:37:16.893Z,58.10
2018-10-16T21:42:21.432Z,57.80
2018-10-16T21:47:25.007Z,58.40
2018-10-16T21:52:28.718Z,58.30
2018-10-16T21:57:32.576Z,58.50
2018-10-16T22:02:41.816Z,59.00
2018-10-16T22:07:45.430Z,58.90
2018-10-16T22:12:49.651Z,58.60
2018-10-16T22:17:53.271Z,58.80
2018-10-16T22:22:57.218Z,58.50
2018-10-16T22:28:00.868Z,58.90
2018-10-16T22:33:04.799Z,59.20
2018-10-16T22:38:09.158Z,59.40
2018-10-16T22:43:17.595Z,59.50
2018-10-16T22:48:21.162Z,60.50
2018-10-16T22:53:24.725Z,59.20
2018-10-16T22:58:29.028Z,59.90
2018-10-16T23:03:32.598Z,59.80
2018-10-16T23:08:36.155Z,59.10
2018-10-16T23:13:39.708Z,59.30
2018-10-16T23:18:43.554Z,59.60
2018-10-16T23:23:47.170Z,59.30
2018-10-16T23:28:50.989Z,60.00
2018-10-16T23:33:55.200Z,59.30
2018-10-16T23:38:58.823Z,59.40
2018-10-16T23:44:02.409Z,59.50
2018-10-16T23:49:06.743Z,59.70
2018-10-16T23:54:10.604Z,59.70
2018-10-16T23:59:14.233Z,59.40
